Adirondack Regional Airport Saranac Lake US
ICAO: KSLK
IATA: SLK
Category: Medium
Scheduled Services: Yes

Elevation: 1663 ft
TransAlt. 18000 ft.

Airport Communications:
ASOS:124.175
BOSTON CNTR:120.35
BURLINGTON RDO:109.2
CTAF/UNICOM:123

KSLK Zoom In..

Runways:

(A) RW 05 length 6573 ft width 150 ft
---- / hdg 49

(B) RW 09 length 3998 ft width 100 ft
---- / hdg 93

(C) RW 23 length 6573 ft width 150 ft
ILS 108.90 / hdg 229

(D) RW 27 length 3998 ft width 100 ft
---- / hdg 273

Location; KSLK
Day. 03 / Time. 10.51 Zulu
* Altimeter: 29.82
* Temperature: 18° c. 64.4°f.
* Wind from: 230° Speed 12 kn with Gusts up to 19 kn.
Dewpoint: 16° c.
Visibility: 10 Statute Miles.
Clouds: Broken 1300 ft.
Clouds: Overcast 1800 ft.

KSLK 031051Z AUTO 23012G19KT 10SM BKN013 OVC018 18/16 A2982 RMK AO2 PK WND 22026/1008 RAB02E10 SLP088 P0000 T01830161

Going to: --> -->


Wind From 230°
Speed 12 kn.

 
 
jpsmedia worldairports.se 2020   terms of use